Sioux Falls, SD

4:48 PM CST on December 28, 2014 (GMT -0600)
Northeast Sioux Falls | Change Station
CLOSE
Current Station
Personal Weather Station
Location: Sioux Falls, SD
Elevation: 1467 ft
Nearby Weather Stations

Elev 1467 ft 43.55 °N, 96.66 °W | Updated 32 seconds ago

Overcast
Overcast
19.8 °F
Feels Like 9 °F
N
8.9
Wind Variable Wind from ESE
Gusts 9.0 mph

Today
High -- | Low -- °F
--% Chance of Precip.
Yesterday
High -- | Low -- °F
Precip. -- in
7:59 AM 4:57 PM
First Quarter, 52% visible
Pressure 30.25 in
Visibility 8.0 miles
Clouds Overcast 800 ft
Windchill 9 °F
Dew Point 18 °F
Humidity 92%
Rainfall 0.00 in
Snow Depth Not available.
UV 0 out of 12
Pollen .10 out of 12
Air Quality Not available.
Flu Activity Not available.
METAR KFSD 282156Z 04012KT 8SM OVC008 M07/M08 A3016 RMK AO2 SLP244 T10671083

More Conditions Fewer Conditions

Pressure 30.25 in
Visibility 8.0 miles
Clouds Overcast 800 ft
Windchill 9 °F
Dew Point 18 °F
Humidity 92%
Rainfall 0.00 in
Snow Depth Not available.
UV 0 out of 12
Pollen .10 out of 12
Air Quality Not available.
Flu Activity Not available.
METAR KFSD 282156Z 04012KT 8SM OVC008 M07/M08 A3016 RMK AO2 SLP244 T10671083

More Conditions Fewer Conditions

10-Day Weather Forecast

Almanac

Astronomy

Dec. 28, 2014 Rise Set
Actual Time
Civil Twilight
Nautical Twilight
Astronomical Twilight
Moon
Length of Visible Light
Length of Day
Tomorrow will be .
, % of the Moon is Illuminated

Today's Extremes

State Highs State Lows

Community

WunderPhotos

Upload Photos

1,781,452 photos uploaded!

WunderBlogs® & News

Nearby

Air Quality

  Air Quality AQ Index Pollutant
Not available.

Snow Depth

Station Depth Elevation

Earthquake Activity

City Distance Mag. Time & Date
Minimum magnitude displayed is 2.5.

Coastal Water Temperatures

Place Temperature

Nearby Weather Stations